createdAt,value
2019-03-23T00:01:46.266Z,11.80
2019-03-23T00:04:14.849Z,11.80
2019-03-23T00:06:43.341Z,11.70
2019-03-23T00:09:11.944Z,11.80
2019-03-23T00:11:40.505Z,11.70
2019-03-23T00:14:09.093Z,11.70
2019-03-23T00:16:37.660Z,11.60
2019-03-23T00:19:06.245Z,11.60
2019-03-23T00:21:34.808Z,11.60
2019-03-23T00:24:03.399Z,11.60
2019-03-23T00:26:31.957Z,11.60
2019-03-23T00:29:00.551Z,11.50
2019-03-23T00:31:29.112Z,11.50
2019-03-23T00:33:57.635Z,11.50
2019-03-23T00:36:26.192Z,11.50
2019-03-23T00:38:54.777Z,11.40
2019-03-23T00:41:23.337Z,11.40
2019-03-23T00:43:51.931Z,11.40
2019-03-23T00:46:20.497Z,11.30
2019-03-23T00:48:49.083Z,11.30
2019-03-23T00:51:17.795Z,11.20
2019-03-23T00:53:46.423Z,11.20
2019-03-23T00:56:16.574Z,11.20
2019-03-23T00:58:45.277Z,11.10
2019-03-23T01:01:13.921Z,11.10
2019-03-23T01:03:42.504Z,11.10
2019-03-23T01:06:11.061Z,11.00
2019-03-23T01:08:39.661Z,11.00
2019-03-23T01:11:08.217Z,11.00
2019-03-23T01:13:36.812Z,10.90
2019-03-23T01:16:05.441Z,10.90
2019-03-23T01:18:33.971Z,10.90
2019-03-23T01:21:02.633Z,10.80
2019-03-23T01:23:31.719Z,10.80
2019-03-23T01:26:00.359Z,10.80
2019-03-23T01:28:28.875Z,10.70
2019-03-23T01:30:57.465Z,10.70
2019-03-23T01:33:25.957Z,10.60
2019-03-23T01:35:54.615Z,10.70
2019-03-23T01:38:23.173Z,10.70
2019-03-23T01:40:51.693Z,10.60
2019-03-23T01:43:20.259Z,10.60
2019-03-23T01:45:48.849Z,10.60
2019-03-23T01:48:17.410Z,10.60
2019-03-23T01:50:46.001Z,10.50
2019-03-23T01:53:14.563Z,10.50
2019-03-23T01:55:43.149Z,10.50
2019-03-23T01:58:11.637Z,10.50
2019-03-23T02:00:40.268Z,10.50
2019-03-23T02:03:08.827Z,10.40
2019-03-23T02:05:37.425Z,10.50
2019-03-23T02:08:05.910Z,10.50
2019-03-23T02:10:34.503Z,10.40
2019-03-23T02:13:03.067Z,10.40
2019-03-23T02:15:31.658Z,10.40
2019-03-23T02:18:00.213Z,10.30
2019-03-23T02:20:28.731Z,10.30
2019-03-23T02:22:57.289Z,10.30
2019-03-23T02:25:25.882Z,10.20
2019-03-23T02:27:54.445Z,10.20
2019-03-23T02:30:23.055Z,10.20
2019-03-23T02:32:51.613Z,10.10
2019-03-23T02:35:20.281Z,10.10
2019-03-23T02:37:48.839Z,10.00
2019-03-23T02:40:17.431Z,9.90
2019-03-23T02:42:45.994Z,9.90
2019-03-23T02:45:14.867Z,9.90
2019-03-23T02:47:43.409Z,9.80
2019-03-23T02:50:12.104Z,9.80
2019-03-23T02:52:40.693Z,9.80
2019-03-23T02:55:10.196Z,9.80
2019-03-23T02:57:38.855Z,9.70
2019-03-23T03:00:12.982Z,9.70
2019-03-23T03:02:41.634Z,9.60
2019-03-23T03:05:10.631Z,9.60
2019-03-23T03:07:42.572Z,9.50
2019-03-23T03:10:11.826Z,9.50
2019-03-23T03:12:40.418Z,9.50
2019-03-23T03:15:10.306Z,9.50
2019-03-23T03:17:38.886Z,9.40
2019-03-23T03:20:09.896Z,9.30
2019-03-23T03:22:38.482Z,9.30
2019-03-23T03:25:07.687Z,9.20
2019-03-23T03:27:36.266Z,9.20
2019-03-23T03:30:06.966Z,9.30
2019-03-23T03:32:35.615Z,9.20
2019-03-23T03:35:05.550Z,9.20
2019-03-23T03:37:34.149Z,9.20
2019-03-23T03:40:02.696Z,9.20
2019-03-23T03:42:31.279Z,9.30
2019-03-23T03:44:59.834Z,9.30
2019-03-23T03:47:28.420Z,9.30
2019-03-23T03:49:56.980Z,9.30
2019-03-23T03:52:25.567Z,9.20
2019-03-23T03:54:54.118Z,9.20
2019-03-23T03:57:22.711Z,9.10
2019-03-23T03:59:51.261Z,9.10
2019-03-23T04:02:19.860Z,9.20
2019-03-23T04:04:48.421Z,9.20
2019-03-23T04:07:16.977Z,9.20
2019-03-23T04:09:45.563Z,9.10
2019-03-23T04:12:14.115Z,9.10
2019-03-23T04:14:42.718Z,9.10
2019-03-23T04:17:11.258Z,9.10
2019-03-23T04:19:39.847Z,9.10
2019-03-23T04:22:08.397Z,9.10
2019-03-23T04:24:36.990Z,9.00
2019-03-23T04:27:05.542Z,9.00
2019-03-23T04:29:34.600Z,9.00
2019-03-23T04:32:03.153Z,9.00
2019-03-23T04:34:31.683Z,9.00
2019-03-23T04:37:00.230Z,8.90
2019-03-23T04:39:28.813Z,8.90
2019-03-23T04:41:57.371Z,8.90
2019-03-23T04:44:25.957Z,8.90
2019-03-23T04:46:54.583Z,8.90
2019-03-23T04:49:23.182Z,8.90
2019-03-23T04:51:51.732Z,9.00
2019-03-23T04:54:20.285Z,9.00
2019-03-23T04:56:48.865Z,8.90
2019-03-23T04:59:17.347Z,8.90
2019-03-23T05:01:45.935Z,8.90
2019-03-23T05:04:14.485Z,9.00
2019-03-23T05:06:43.073Z,8.90
2019-03-23T05:09:11.630Z,8.90
2019-03-23T05:11:40.215Z,8.90
2019-03-23T05:14:08.711Z,8.90
2019-03-23T05:16:37.293Z,8.90
2019-03-23T05:19:05.777Z,8.90
2019-03-23T05:21:34.377Z,8.90
2019-03-23T05:24:02.921Z,8.90
2019-03-23T05:26:31.505Z,8.90
2019-03-23T05:29:00.065Z,8.90
2019-03-23T05:31:28.656Z,9.00
2019-03-23T05:33:57.217Z,8.90
2019-03-23T05:36:25.733Z,9.00
2019-03-23T05:38:54.287Z,8.90
2019-03-23T05:41:22.865Z,9.00
2019-03-23T05:43:51.345Z,9.00
2019-03-23T05:46:19.936Z,9.00
2019-03-23T05:48:48.487Z,9.00
2019-03-23T05:51:17.052Z,9.10
2019-03-23T05:53:45.641Z,9.10
2019-03-23T05:56:14.203Z,9.10
2019-03-23T05:58:42.794Z,9.20
2019-03-23T06:01:11.418Z,9.20
2019-03-23T06:03:40.009Z,9.30
2019-03-23T06:06:08.567Z,9.30
2019-03-23T06:08:37.163Z,9.30
2019-03-23T06:11:05.787Z,9.40
2019-03-23T06:13:34.378Z,9.40
2019-03-23T06:16:02.929Z,9.40
2019-03-23T06:18:31.451Z,9.50
2019-03-23T06:20:59.997Z,9.60
2019-03-23T06:23:28.588Z,9.60
2019-03-23T06:25:57.163Z,9.70
2019-03-23T06:28:25.705Z,9.70
2019-03-23T06:30:54.221Z,9.80
2019-03-23T06:33:22.785Z,9.80
2019-03-23T06:35:51.374Z,9.80
2019-03-23T06:38:19.929Z,9.90
2019-03-23T06:40:48.527Z,9.90
2019-03-23T06:43:17.081Z,9.90
2019-03-23T06:45:45.680Z,10.00
2019-03-23T06:48:14.240Z,10.10
2019-03-23T06:50:42.825Z,10.10
2019-03-23T06:53:11.381Z,10.20
2019-03-23T06:55:39.909Z,10.20
2019-03-23T06:58:08.470Z,10.30
2019-03-23T07:00:37.062Z,10.30
2019-03-23T07:03:05.629Z,10.40
2019-03-23T07:05:34.234Z,10.50
2019-03-23T07:08:02.857Z,10.50
2019-03-23T07:10:31.379Z,10.50
2019-03-23T07:12:59.951Z,10.70
2019-03-23T07:15:28.516Z,10.70
2019-03-23T07:17:57.110Z,10.80
2019-03-23T07:20:25.677Z,10.90
2019-03-23T07:22:54.986Z,11.00
2019-03-23T07:25:23.622Z,11.10
2019-03-23T07:27:52.143Z,11.20
2019-03-23T07:30:20.712Z,11.20
2019-03-23T07:32:49.294Z,11.30
2019-03-23T07:35:17.938Z,11.40
2019-03-23T07:37:46.517Z,11.50
2019-03-23T07:40:15.157Z,11.60
2019-03-23T07:42:43.748Z,11.70
2019-03-23T07:45:14.419Z,11.80
2019-03-23T07:47:43.134Z,11.90
2019-03-23T07:50:12.933Z,12.00
2019-03-23T07:52:41.514Z,12.10
2019-03-23T07:55:13.153Z,12.20
2019-03-23T07:57:41.809Z,12.40
2019-03-23T08:00:13.444Z,12.50
2019-03-23T08:02:42.039Z,12.60
2019-03-23T08:05:10.773Z,12.70
2019-03-23T08:07:39.362Z,12.80
2019-03-23T08:10:08.794Z,13.00
2019-03-23T08:12:37.388Z,13.10
2019-03-23T08:15:08.558Z,13.20
2019-03-23T08:17:37.155Z,13.40
2019-03-23T08:20:07.450Z,13.50
2019-03-23T08:22:36.034Z,13.60
2019-03-23T08:25:06.461Z,13.70
2019-03-23T08:27:35.065Z,13.80
2019-03-23T08:30:04.973Z,14.00
2019-03-23T08:32:33.573Z,14.20
2019-03-23T08:35:02.138Z,14.30
2019-03-23T08:37:30.746Z,14.50
2019-03-23T08:39:59.305Z,14.50
2019-03-23T08:42:27.893Z,14.60
2019-03-23T08:44:56.461Z,14.80
2019-03-23T08:47:25.046Z,14.90
2019-03-23T08:49:53.597Z,15.10
2019-03-23T08:52:22.094Z,15.10
2019-03-23T08:54:50.750Z,15.40
2019-03-23T08:57:19.339Z,15.50
2019-03-23T08:59:47.926Z,15.70
2019-03-23T09:02:16.410Z,15.80
2019-03-23T09:04:44.993Z,15.90
2019-03-23T09:07:13.481Z,16.10
2019-03-23T09:09:42.072Z,16.30
2019-03-23T09:12:10.705Z,16.50
2019-03-23T09:14:39.298Z,16.50
2019-03-23T09:17:07.789Z,16.60
2019-03-23T09:19:36.373Z,16.60
2019-03-23T09:22:04.935Z,16.80
2019-03-23T09:24:33.528Z,17.00
2019-03-23T09:27:02.113Z,17.00
2019-03-23T09:29:30.709Z,17.20
2019-03-23T09:31:59.269Z,17.50
2019-03-23T09:34:27.845Z,17.80
2019-03-23T09:36:56.406Z,17.80
2019-03-23T09:39:24.986Z,17.90
2019-03-23T09:41:53.547Z,18.00
2019-03-23T09:44:22.134Z,18.10
2019-03-23T09:46:50.685Z,18.50
2019-03-23T09:49:19.205Z,18.70
2019-03-23T09:51:47.761Z,18.90
2019-03-23T09:54:16.281Z,19.10
2019-03-23T09:56:44.842Z,19.30
2019-03-23T09:59:13.366Z,19.50
2019-03-23T10:01:41.918Z,19.70
2019-03-23T10:04:10.418Z,19.80
2019-03-23T10:06:38.897Z,20.00
2019-03-23T10:09:07.723Z,20.30
2019-03-23T10:11:36.303Z,20.50
2019-03-23T10:14:04.917Z,20.80
2019-03-23T10:16:33.518Z,21.00
2019-03-23T10:19:02.088Z,21.20
2019-03-23T10:21:30.679Z,21.30
2019-03-23T10:23:59.221Z,21.80
2019-03-23T10:26:27.801Z,22.60
2019-03-23T10:28:56.284Z,24.20
2019-03-23T10:31:24.866Z,26.10
2019-03-23T10:33:53.422Z,26.60
2019-03-23T10:36:22.015Z,27.30
2019-03-23T10:38:50.571Z,28.80
2019-03-23T10:41:19.228Z,29.30
2019-03-23T10:43:47.794Z,30.40
2019-03-23T10:46:16.386Z,30.40
2019-03-23T10:48:45.001Z,31.40
2019-03-23T10:51:13.603Z,30.70
2019-03-23T10:53:42.158Z,32.20
2019-03-23T10:56:10.666Z,30.50
2019-03-23T10:58:39.222Z,33.10
2019-03-23T11:01:07.885Z,32.90
2019-03-23T11:03:36.444Z,32.50
2019-03-23T11:06:05.113Z,34.40
2019-03-23T11:08:33.654Z,33.90
2019-03-23T11:11:02.251Z,32.70
2019-03-23T11:13:30.798Z,32.10
2019-03-23T11:15:59.382Z,33.90
2019-03-23T11:18:27.934Z,35.40
2019-03-23T11:20:56.518Z,35.80
2019-03-23T11:23:25.075Z,33.00
2019-03-23T11:25:53.654Z,33.20
2019-03-23T11:28:22.214Z,35.10
2019-03-23T11:30:50.870Z,33.60
2019-03-23T11:33:19.429Z,35.40
2019-03-23T11:35:57.513Z,33.20
2019-03-23T11:38:18.250Z,33.10
2019-03-23T11:40:53.831Z,33.60
2019-03-23T11:43:17.038Z,32.60
2019-03-23T11:45:45.594Z,33.20
2019-03-23T11:48:14.190Z,33.80
2019-03-23T11:50:42.817Z,34.70
2019-03-23T11:53:11.393Z,36.30
2019-03-23T11:55:39.949Z,35.40
2019-03-23T11:58:08.536Z,35.40
2019-03-23T12:00:37.090Z,36.30
2019-03-23T12:03:05.678Z,36.80
2019-03-23T12:05:34.230Z,37.70
2019-03-23T12:08:02.818Z,38.60
2019-03-23T12:10:31.315Z,39.30
2019-03-23T12:12:59.901Z,37.40
2019-03-23T12:15:29.855Z,34.70
2019-03-23T12:17:58.607Z,34.40
2019-03-23T12:20:27.169Z,32.40
2019-03-23T12:22:55.763Z,36.50
2019-03-23T12:25:24.330Z,38.50
2019-03-23T12:27:52.846Z,38.50
2019-03-23T12:30:21.470Z,38.70
2019-03-23T12:32:50.056Z,38.00
2019-03-23T12:35:18.623Z,38.50
2019-03-23T12:37:47.205Z,39.20
2019-03-23T12:40:15.898Z,40.10
2019-03-23T12:42:44.564Z,40.20
2019-03-23T12:45:13.872Z,39.40
2019-03-23T12:47:42.528Z,38.80
2019-03-23T12:50:11.724Z,40.10
2019-03-23T12:52:40.304Z,40.30
2019-03-23T12:55:09.827Z,40.70
2019-03-23T12:57:38.415Z,41.00
2019-03-23T13:00:12.965Z,42.20
2019-03-23T13:02:41.551Z,41.00
2019-03-23T13:05:10.347Z,40.10
2019-03-23T13:07:38.977Z,39.90
2019-03-23T13:10:10.893Z,40.00
2019-03-23T13:12:39.590Z,41.40
2019-03-23T13:15:12.367Z,42.00
2019-03-23T13:17:40.960Z,42.60
2019-03-23T13:20:11.254Z,37.60
2019-03-23T13:22:39.928Z,35.20
2019-03-23T13:25:09.533Z,35.10
2019-03-23T13:27:38.081Z,37.70
2019-03-23T13:30:09.904Z,37.60
2019-03-23T13:32:38.463Z,36.50
2019-03-23T13:35:07.286Z,36.50
2019-03-23T13:37:35.773Z,36.00
2019-03-23T13:40:06.634Z,36.80
2019-03-23T13:42:35.122Z,34.50
2019-03-23T13:45:04.841Z,35.00
2019-03-23T13:47:33.329Z,35.50
2019-03-23T13:50:01.885Z,35.40
2019-03-23T13:52:30.445Z,35.40
2019-03-23T13:54:59.036Z,35.60
2019-03-23T13:57:27.590Z,35.00
2019-03-23T13:59:56.178Z,34.90
2019-03-23T14:02:24.984Z,35.20
2019-03-23T14:04:53.583Z,35.20
2019-03-23T14:07:22.137Z,34.30
2019-03-23T14:09:50.735Z,34.60
2019-03-23T14:12:19.290Z,35.40
2019-03-23T14:14:47.812Z,36.30
2019-03-23T14:17:16.375Z,35.60
2019-03-23T14:19:44.964Z,35.30
2019-03-23T14:22:13.594Z,33.30
2019-03-23T14:24:42.118Z,33.50
2019-03-23T14:27:10.678Z,33.20
2019-03-23T14:29:39.200Z,33.30
2019-03-23T14:32:07.767Z,32.10
2019-03-23T14:34:36.453Z,30.80
2019-03-23T14:37:05.007Z,32.90
2019-03-23T14:39:33.525Z,34.00
2019-03-23T14:42:05.109Z,33.30
2019-03-23T14:44:32.333Z,32.50
2019-03-23T14:47:00.901Z,32.30
2019-03-23T14:49:29.498Z,32.50
2019-03-23T14:51:58.117Z,32.40
2019-03-23T14:54:26.729Z,31.80
2019-03-23T14:56:55.294Z,32.40
2019-03-23T14:59:23.854Z,31.40
2019-03-23T15:01:52.442Z,31.90
2019-03-23T15:04:21.017Z,32.50
2019-03-23T15:06:49.731Z,32.60
2019-03-23T15:09:18.304Z,31.50
2019-03-23T15:11:46.886Z,31.00
2019-03-23T15:14:37.115Z,29.50
2019-03-23T15:16:58.021Z,28.40
2019-03-23T15:19:26.594Z,28.10
2019-03-23T15:21:55.178Z,27.00
2019-03-23T15:24:23.760Z,26.70
2019-03-23T15:26:52.330Z,26.40
2019-03-23T15:29:20.914Z,26.10
2019-03-23T15:31:51.377Z,25.80
2019-03-23T15:34:20.077Z,25.30
2019-03-23T15:36:48.848Z,25.10
2019-03-23T15:39:17.464Z,24.90
2019-03-23T15:41:46.061Z,24.80
2019-03-23T15:44:14.794Z,24.90
2019-03-23T15:46:43.345Z,24.50
2019-03-23T15:49:11.874Z,24.40
2019-03-23T15:51:40.462Z,24.10
2019-03-23T15:54:09.028Z,23.90
2019-03-23T15:56:37.615Z,22.90
2019-03-23T15:59:06.167Z,22.90
2019-03-23T16:01:34.758Z,23.00
2019-03-23T16:04:03.395Z,22.70
2019-03-23T16:06:31.986Z,22.50
2019-03-23T16:09:00.538Z,22.70
2019-03-23T16:11:29.061Z,22.60
2019-03-23T16:13:57.552Z,22.50
2019-03-23T16:16:26.142Z,22.20
2019-03-23T16:18:54.698Z,22.20
2019-03-23T16:21:23.216Z,22.00
2019-03-23T16:23:51.774Z,21.90
2019-03-23T16:26:20.370Z,21.50
2019-03-23T16:28:48.934Z,21.40
2019-03-23T16:31:17.486Z,21.40
2019-03-23T16:33:46.153Z,21.00
2019-03-23T16:36:14.703Z,21.00
2019-03-23T16:38:43.294Z,21.00
2019-03-23T16:41:11.774Z,21.00
2019-03-23T16:43:40.298Z,20.80
2019-03-23T16:46:08.846Z,20.50
2019-03-23T16:48:37.362Z,20.20
2019-03-23T16:51:05.926Z,19.80
2019-03-23T16:53:34.522Z,19.80
2019-03-23T16:56:03.075Z,19.80
2019-03-23T16:58:31.662Z,19.90
2019-03-23T17:01:00.148Z,19.30
2019-03-23T17:03:28.739Z,19.40
2019-03-23T17:05:57.303Z,19.20
2019-03-23T17:08:25.883Z,18.90
2019-03-23T17:10:54.442Z,18.90
2019-03-23T17:13:23.014Z,19.00
2019-03-23T17:15:51.500Z,19.00
2019-03-23T17:18:20.090Z,18.80
2019-03-23T17:20:48.646Z,18.70
2019-03-23T17:23:17.244Z,18.60
2019-03-23T17:25:45.803Z,18.60
2019-03-23T17:28:14.314Z,18.50
2019-03-23T17:30:42.980Z,18.50
2019-03-23T17:33:11.588Z,18.30
2019-03-23T17:35:40.134Z,18.20
2019-03-23T17:38:08.654Z,18.10
2019-03-23T17:40:37.207Z,17.80
2019-03-23T17:43:06.399Z,17.80
2019-03-23T17:45:34.974Z,17.80
2019-03-23T17:48:03.562Z,17.60
2019-03-23T17:50:32.050Z,17.60
2019-03-23T17:53:00.614Z,17.40
2019-03-23T17:55:29.225Z,17.40
2019-03-23T17:57:57.774Z,17.20
2019-03-23T18:00:26.762Z,16.90
2019-03-23T18:02:55.320Z,16.70
2019-03-23T18:05:24.054Z,16.40
2019-03-23T18:07:52.610Z,16.40
2019-03-23T18:10:21.203Z,16.40
2019-03-23T18:12:49.844Z,16.20
2019-03-23T18:15:18.510Z,16.00
2019-03-23T18:17:47.074Z,15.80
2019-03-23T18:20:15.818Z,15.70
2019-03-23T18:22:44.381Z,15.90
2019-03-23T18:25:13.078Z,15.90
2019-03-23T18:27:41.667Z,15.60
2019-03-23T18:30:21.982Z,15.50
2019-03-23T18:32:50.567Z,15.40
2019-03-23T18:35:19.122Z,15.40
2019-03-23T18:37:47.638Z,15.40
2019-03-23T18:40:16.204Z,15.30
2019-03-23T18:42:44.786Z,15.30
2019-03-23T18:45:13.377Z,15.20
2019-03-23T18:47:41.932Z,15.20
2019-03-23T18:50:10.666Z,15.20
2019-03-23T18:52:39.342Z,14.80
2019-03-23T18:55:08.198Z,14.60
2019-03-23T18:57:36.698Z,14.70
2019-03-23T19:00:09.563Z,14.20
2019-03-23T19:02:38.184Z,14.40
2019-03-23T19:05:06.962Z,14.20
2019-03-23T19:07:35.578Z,14.20
2019-03-23T19:10:05.836Z,14.30
2019-03-23T19:12:34.423Z,14.40
2019-03-23T19:15:03.082Z,14.10
2019-03-23T19:17:31.570Z,14.10
2019-03-23T19:20:00.194Z,14.00
2019-03-23T19:22:29.024Z,13.80
2019-03-23T19:24:57.615Z,13.80
2019-03-23T19:27:26.174Z,13.90
2019-03-23T19:29:54.738Z,13.90
2019-03-23T19:32:23.406Z,13.80
2019-03-23T19:34:51.971Z,13.60
2019-03-23T19:37:20.558Z,13.70
2019-03-23T19:39:49.056Z,13.80
2019-03-23T19:42:17.714Z,13.90
2019-03-23T19:44:46.230Z,13.80
2019-03-23T19:47:14.827Z,13.90
2019-03-23T19:49:43.395Z,13.80
2019-03-23T19:52:11.990Z,13.80
2019-03-23T19:54:40.550Z,13.90
2019-03-23T19:57:09.220Z,13.90
2019-03-23T19:59:37.698Z,13.90
2019-03-23T20:02:06.430Z,13.90
2019-03-23T20:04:34.985Z,13.60
2019-03-23T20:07:03.498Z,13.50
2019-03-23T20:09:32.062Z,13.40
2019-03-23T20:12:00.662Z,13.50
2019-03-23T20:14:29.218Z,13.30
2019-03-23T20:16:57.814Z,13.30
2019-03-23T20:19:26.374Z,13.20
2019-03-23T20:21:54.979Z,13.10
2019-03-23T20:24:23.609Z,13.00
2019-03-23T20:26:52.211Z,13.10
2019-03-23T20:29:20.772Z,13.10
2019-03-23T20:31:49.359Z,12.70
2019-03-23T20:34:17.918Z,12.90
2019-03-23T20:36:46.515Z,12.90
2019-03-23T20:39:15.079Z,12.90
2019-03-23T20:41:43.694Z,12.70
2019-03-23T20:44:12.294Z,12.80
2019-03-23T20:46:40.915Z,12.70
2019-03-23T20:49:10.152Z,12.70
2019-03-23T20:51:38.984Z,12.80
2019-03-23T20:54:07.506Z,12.70
2019-03-23T20:56:36.136Z,12.70
2019-03-23T20:59:04.802Z,12.50
2019-03-23T21:01:33.359Z,12.40
2019-03-23T21:04:01.961Z,12.40
2019-03-23T21:06:30.528Z,12.20
2019-03-23T21:08:59.122Z,12.30
2019-03-23T21:11:27.686Z,12.30
2019-03-23T21:13:56.278Z,12.30
2019-03-23T21:16:24.838Z,12.30
2019-03-23T21:18:53.398Z,12.30
2019-03-23T21:21:21.990Z,12.30
2019-03-23T21:23:52.128Z,12.30
2019-03-23T21:26:20.887Z,12.20
2019-03-23T21:28:49.442Z,12.10
2019-03-23T21:31:18.294Z,11.90
2019-03-23T21:33:46.859Z,11.90
2019-03-23T21:36:15.442Z,12.00
2019-03-23T21:38:43.963Z,12.00
2019-03-23T21:41:12.526Z,12.20
2019-03-23T21:43:41.082Z,12.10
2019-03-23T21:46:09.602Z,12.20
2019-03-23T21:48:38.167Z,12.30
2019-03-23T21:51:06.717Z,12.40
2019-03-23T21:53:35.238Z,12.50
2019-03-23T21:56:03.791Z,12.50
2019-03-23T21:58:32.301Z,12.60
2019-03-23T22:01:00.792Z,12.50
2019-03-23T22:03:29.461Z,12.60
2019-03-23T22:05:58.023Z,12.70
2019-03-23T22:08:26.674Z,12.70
2019-03-23T22:10:55.235Z,12.80
2019-03-23T22:13:23.835Z,12.80
2019-03-23T22:15:52.402Z,12.80
2019-03-23T22:18:20.965Z,12.80
2019-03-23T22:20:49.546Z,12.80
2019-03-23T22:23:18.044Z,12.80
2019-03-23T22:25:46.638Z,12.80
2019-03-23T22:28:15.118Z,12.80
2019-03-23T22:30:43.630Z,12.70
2019-03-23T22:33:12.112Z,12.70
2019-03-23T22:35:40.706Z,12.70
2019-03-23T22:38:09.275Z,12.60
2019-03-23T22:40:37.859Z,12.60
2019-03-23T22:43:06.346Z,12.60
2019-03-23T22:45:35.898Z,12.60
2019-03-23T22:48:04.734Z,12.60
2019-03-23T22:50:33.330Z,12.60
2019-03-23T22:53:01.891Z,12.50
2019-03-23T22:55:30.538Z,12.40
2019-03-23T22:57:59.063Z,12.30
2019-03-23T23:00:33.362Z,12.30
2019-03-23T23:03:02.658Z,12.00
2019-03-23T23:05:31.254Z,12.20
2019-03-23T23:07:59.806Z,12.20
2019-03-23T23:10:28.314Z,12.20
2019-03-23T23:12:56.814Z,12.10
2019-03-23T23:15:25.404Z,11.80
2019-03-23T23:17:53.966Z,11.90
2019-03-23T23:20:22.550Z,11.70
2019-03-23T23:22:51.039Z,11.80
2019-03-23T23:25:19.624Z,11.80
2019-03-23T23:27:48.191Z,11.90
2019-03-23T23:30:17.048Z,12.00
2019-03-23T23:32:45.580Z,12.10
2019-03-23T23:35:14.335Z,12.20
2019-03-23T23:37:42.891Z,12.20
2019-03-23T23:40:11.630Z,12.20
2019-03-23T23:42:40.187Z,12.20
2019-03-23T23:45:15.209Z,12.30
2019-03-23T23:47:39.954Z,12.30
2019-03-23T23:50:09.054Z,12.30
2019-03-23T23:52:37.574Z,12.20
2019-03-23T23:55:06.882Z,12.30
2019-03-23T23:57:35.466Z,12.30
